sensor_id;sensor_type;location;lat;lon;timestamp;pressure;altitude;pressure_sealevel;temperature;humidity
19005;BME280;9635;52.078;8.648;2023-03-18T00:02:30;99685.84;;;11.03;61.43
19005;BME280;9635;52.078;8.648;2023-03-18T00:07:33;99681.34;;;10.84;63.95
19005;BME280;9635;52.078;8.648;2023-03-18T00:12:37;99696.75;;;10.34;67.29
19005;BME280;9635;52.078;8.648;2023-03-18T00:17:41;99698.81;;;10.11;69.36
19005;BME280;9635;52.078;8.648;2023-03-18T00:22:44;99704.88;;;9.63;71.08
19005;BME280;9635;52.078;8.648;2023-03-18T00:27:47;99709.72;;;9.48;74.01
19005;BME280;9635;52.078;8.648;2023-03-18T00:32:51;99712.72;;;9.03;75.08
19005;BME280;9635;52.078;8.648;2023-03-18T00:37:55;99709.16;;;9.44;76.49
19005;BME280;9635;52.078;8.648;2023-03-18T00:42:58;99709.09;;;9.35;75.78
19005;BME280;9635;52.078;8.648;2023-03-18T00:48:09;99718.69;;;9.37;77.30
19005;BME280;9635;52.078;8.648;2023-03-18T00:53:13;99714.78;;;9.20;78.66
19005;BME280;9635;52.078;8.648;2023-03-18T00:58:15;99709.38;;;9.11;78.97
19005;BME280;9635;52.078;8.648;2023-03-18T01:03:20;99713.56;;;9.03;79.77
19005;BME280;9635;52.078;8.648;2023-03-18T01:08:26;99716.16;;;9.15;79.73
19005;BME280;9635;52.078;8.648;2023-03-18T01:13:30;99705.78;;;9.00;80.99
19005;BME280;9635;52.078;8.648;2023-03-18T01:18:35;99704.91;;;9.21;81.65
19005;BME280;9635;52.078;8.648;2023-03-18T01:23:39;99704.75;;;8.92;83.18
19005;BME280;9635;52.078;8.648;2023-03-18T01:28:43;99691.13;;;9.04;82.81
19005;BME280;9635;52.078;8.648;2023-03-18T01:33:48;99702.97;;;9.02;83.34
19005;BME280;9635;52.078;8.648;2023-03-18T01:38:51;99697.28;;;9.16;83.34
19005;BME280;9635;52.078;8.648;2023-03-18T01:43:54;99692.59;;;9.09;84.01
19005;BME280;9635;52.078;8.648;2023-03-18T01:49:00;99688.72;;;9.22;83.96
19005;BME280;9635;52.078;8.648;2023-03-18T01:54:05;99702.69;;;9.26;83.86
19005;BME280;9635;52.078;8.648;2023-03-18T01:59:10;99686.94;;;9.33;83.94
19005;BME280;9635;52.078;8.648;2023-03-18T02:04:14;99687.69;;;9.44;84.43
19005;BME280;9635;52.078;8.648;2023-03-18T02:09:18;99690.56;;;9.53;84.66
19005;BME280;9635;52.078;8.648;2023-03-18T02:14:24;99693.25;;;9.53;84.39
19005;BME280;9635;52.078;8.648;2023-03-18T02:19:40;99703.91;;;9.43;83.52
19005;BME280;9635;52.078;8.648;2023-03-18T02:24:54;99699.84;;;9.48;83.80
19005;BME280;9635;52.078;8.648;2023-03-18T02:30:06;99688.59;;;9.55;83.07
19005;BME280;9635;52.078;8.648;2023-03-18T02:35:11;99692.44;;;9.62;83.20
19005;BME280;9635;52.078;8.648;2023-03-18T02:40:16;99684.72;;;9.68;83.53
19005;BME280;9635;52.078;8.648;2023-03-18T02:45:34;99687.81;;;9.73;83.64
19005;BME280;9635;52.078;8.648;2023-03-18T02:50:47;99705.34;;;9.78;84.16
19005;BME280;9635;52.078;8.648;2023-03-18T02:55:50;99703.22;;;9.81;84.39
19005;BME280;9635;52.078;8.648;2023-03-18T03:00:55;99705.47;;;9.76;83.81
19005;BME280;9635;52.078;8.648;2023-03-18T03:05:59;99715.94;;;9.79;84.04
19005;BME280;9635;52.078;8.648;2023-03-18T03:11:03;99719.31;;;9.81;83.73
19005;BME280;9635;52.078;8.648;2023-03-18T03:16:11;99709.13;;;9.75;83.42
19005;BME280;9635;52.078;8.648;2023-03-18T03:21:14;99705.72;;;9.73;83.49
19005;BME280;9635;52.078;8.648;2023-03-18T03:26:17;99712.47;;;9.67;82.91
19005;BME280;9635;52.078;8.648;2023-03-18T03:31:23;99714.31;;;9.67;83.06
19005;BME280;9635;52.078;8.648;2023-03-18T03:36:27;99713.59;;;9.65;83.16
19005;BME280;9635;52.078;8.648;2023-03-18T03:41:31;99711.06;;;9.63;83.24
19005;BME280;9635;52.078;8.648;2023-03-18T03:46:35;99723.38;;;9.66;83.68
19005;BME280;9635;52.078;8.648;2023-03-18T03:51:38;99718.50;;;9.60;82.66
19005;BME280;9635;52.078;8.648;2023-03-18T03:56:42;99721.66;;;9.65;82.49
19005;BME280;9635;52.078;8.648;2023-03-18T04:01:46;99709.63;;;9.59;82.78
19005;BME280;9635;52.078;8.648;2023-03-18T04:06:49;99724.88;;;9.59;82.35
19005;BME280;9635;52.078;8.648;2023-03-18T04:11:52;99725.03;;;9.57;81.57
19005;BME280;9635;52.078;8.648;2023-03-18T04:16:57;99729.66;;;9.55;80.93
19005;BME280;9635;52.078;8.648;2023-03-18T04:22:02;99728.09;;;9.53;80.31
19005;BME280;9635;52.078;8.648;2023-03-18T04:27:06;99717.91;;;9.46;80.70
19005;BME280;9635;52.078;8.648;2023-03-18T04:32:10;99730.13;;;9.39;80.26
19005;BME280;9635;52.078;8.648;2023-03-18T04:37:13;99751.84;;;9.36;80.23
19005;BME280;9635;52.078;8.648;2023-03-18T04:42:22;99748.91;;;9.18;80.64
19005;BME280;9635;52.078;8.648;2023-03-18T04:47:26;99752.31;;;9.41;79.79
19005;BME280;9635;52.078;8.648;2023-03-18T04:52:30;99756.03;;;9.50;79.24
19005;BME280;9635;52.078;8.648;2023-03-18T04:57:34;99759.91;;;9.67;78.19
19005;BME280;9635;52.078;8.648;2023-03-18T05:02:43;99757.63;;;9.62;78.30
19005;BME280;9635;52.078;8.648;2023-03-18T05:07:46;99756.69;;;9.94;77.51
19005;BME280;9635;52.078;8.648;2023-03-18T05:12:52;99760.34;;;9.93;77.52
19005;BME280;9635;52.078;8.648;2023-03-18T05:18:04;99766.44;;;9.74;77.96
19005;BME280;9635;52.078;8.648;2023-03-18T05:23:08;99767.69;;;9.70;77.96
19005;BME280;9635;52.078;8.648;2023-03-18T05:28:21;99770.09;;;9.73;78.06
19005;BME280;9635;52.078;8.648;2023-03-18T05:33:41;99769.66;;;9.89;77.75
19005;BME280;9635;52.078;8.648;2023-03-18T05:38:46;99771.84;;;9.84;77.62
19005;BME280;9635;52.078;8.648;2023-03-18T05:43:49;99771.66;;;9.97;77.24
19005;BME280;9635;52.078;8.648;2023-03-18T05:48:54;99771.09;;;10.03;77.43
19005;BME280;9635;52.078;8.648;2023-03-18T05:54:01;99772.41;;;10.08;76.88
19005;BME280;9635;52.078;8.648;2023-03-18T05:59:13;99785.38;;;10.03;77.18
19005;BME280;9635;52.078;8.648;2023-03-18T06:04:25;99799.97;;;10.20;76.50
19005;BME280;9635;52.078;8.648;2023-03-18T06:09:28;99802.75;;;10.39;75.70
19005;BME280;9635;52.078;8.648;2023-03-18T06:14:31;99808.19;;;10.19;76.56
19005;BME280;9635;52.078;8.648;2023-03-18T06:19:37;99812.44;;;10.21;76.67
19005;BME280;9635;52.078;8.648;2023-03-18T06:24:42;99808.97;;;10.50;75.43
19005;BME280;9635;52.078;8.648;2023-03-18T06:29:50;99806.16;;;10.11;76.18
19005;BME280;9635;52.078;8.648;2023-03-18T06:34:54;99813.31;;;10.31;76.19
19005;BME280;9635;52.078;8.648;2023-03-18T06:39:57;99824.34;;;10.38;75.76
19005;BME280;9635;52.078;8.648;2023-03-18T06:45:01;99822.81;;;10.55;75.24
19005;BME280;9635;52.078;8.648;2023-03-18T06:50:17;99826.34;;;10.55;75.46
19005;BME280;9635;52.078;8.648;2023-03-18T06:55:21;99830.94;;;10.84;74.48
19005;BME280;9635;52.078;8.648;2023-03-18T07:00:25;99831.53;;;10.97;73.94
19005;BME280;9635;52.078;8.648;2023-03-18T07:05:30;99837.59;;;10.99;73.77
19005;BME280;9635;52.078;8.648;2023-03-18T07:10:34;99842.97;;;10.99;73.59
19005;BME280;9635;52.078;8.648;2023-03-18T07:15:42;99839.16;;;11.12;72.92
19005;BME280;9635;52.078;8.648;2023-03-18T07:20:47;99840.69;;;11.72;71.62
19005;BME280;9635;52.078;8.648;2023-03-18T07:25:51;99850.38;;;12.03;69.40
19005;BME280;9635;52.078;8.648;2023-03-18T07:30:53;99857.81;;;11.81;70.21
19005;BME280;9635;52.078;8.648;2023-03-18T07:35:58;99862.63;;;11.78;69.98
19005;BME280;9635;52.078;8.648;2023-03-18T07:41:02;99869.75;;;11.69;70.45
19005;BME280;9635;52.078;8.648;2023-03-18T07:46:05;99874.53;;;11.75;69.92
19005;BME280;9635;52.078;8.648;2023-03-18T07:51:10;99880.22;;;11.43;71.10
19005;BME280;9635;52.078;8.648;2023-03-18T07:56:12;99893.09;;;11.49;71.09
19005;BME280;9635;52.078;8.648;2023-03-18T08:01:15;99891.56;;;11.46;70.77
19005;BME280;9635;52.078;8.648;2023-03-18T08:06:21;99899.91;;;11.53;70.91
19005;BME280;9635;52.078;8.648;2023-03-18T08:11:24;99901.44;;;11.65;70.02
19005;BME280;9635;52.078;8.648;2023-03-18T08:16:27;99917.00;;;11.91;69.65
19005;BME280;9635;52.078;8.648;2023-03-18T08:21:31;99914.19;;;11.73;69.92
19005;BME280;9635;52.078;8.648;2023-03-18T08:26:34;99921.97;;;11.76;69.97
19005;BME280;9635;52.078;8.648;2023-03-18T08:31:37;99918.16;;;12.45;68.09
19005;BME280;9635;52.078;8.648;2023-03-18T08:36:41;99920.91;;;12.16;67.73
19005;BME280;9635;52.078;8.648;2023-03-18T08:41:45;99916.84;;;11.92;69.60
19005;BME280;9635;52.078;8.648;2023-03-18T08:46:49;99920.41;;;11.93;69.02
19005;BME280;9635;52.078;8.648;2023-03-18T08:51:53;99933.28;;;11.89;69.18
19005;BME280;9635;52.078;8.648;2023-03-18T08:56:57;99920.88;;;12.26;67.54
19005;BME280;9635;52.078;8.648;2023-03-18T09:02:01;99937.59;;;12.39;66.81
19005;BME280;9635;52.078;8.648;2023-03-18T09:07:05;99942.72;;;12.70;67.10
19005;BME280;9635;52.078;8.648;2023-03-18T09:12:08;99942.97;;;12.76;66.10
19005;BME280;9635;52.078;8.648;2023-03-18T09:17:12;99954.59;;;12.77;66.90
19005;BME280;9635;52.078;8.648;2023-03-18T09:22:16;99959.56;;;12.44;66.95
19005;BME280;9635;52.078;8.648;2023-03-18T09:27:19;99977.72;;;12.23;67.74
19005;BME280;9635;52.078;8.648;2023-03-18T09:32:22;99964.25;;;12.70;66.45
19005;BME280;9635;52.078;8.648;2023-03-18T09:37:26;99965.13;;;12.70;66.21
19005;BME280;9635;52.078;8.648;2023-03-18T09:42:40;99954.88;;;12.46;67.06
19005;BME280;9635;52.078;8.648;2023-03-18T09:47:58;99960.47;;;12.63;67.47
19005;BME280;9635;52.078;8.648;2023-03-18T09:53:17;99969.63;;;12.79;65.92
19005;BME280;9635;52.078;8.648;2023-03-18T09:58:26;99979.13;;;12.83;64.78
19005;BME280;9635;52.078;8.648;2023-03-18T10:03:33;99979.75;;;13.23;64.93
19005;BME280;9635;52.078;8.648;2023-03-18T10:08:47;99988.34;;;13.36;63.87
19005;BME280;9635;52.078;8.648;2023-03-18T10:14:14;99989.22;;;13.27;64.98
19005;BME280;9635;52.078;8.648;2023-03-18T10:19:18;99990.19;;;13.08;64.48
19005;BME280;9635;52.078;8.648;2023-03-18T10:24:29;99999.06;;;13.00;64.80
19005;BME280;9635;52.078;8.648;2023-03-18T10:29:39;99997.09;;;13.20;63.98
19005;BME280;9635;52.078;8.648;2023-03-18T10:34:54;99994.50;;;13.74;63.16
19005;BME280;9635;52.078;8.648;2023-03-18T10:40:00;100007.56;;;13.51;62.61
19005;BME280;9635;52.078;8.648;2023-03-18T10:45:07;100014.19;;;12.74;64.69
19005;BME280;9635;52.078;8.648;2023-03-18T10:50:21;100007.16;;;13.18;64.30
19005;BME280;9635;52.078;8.648;2023-03-18T10:55:30;100023.84;;;13.04;63.89
19005;BME280;9635;52.078;8.648;2023-03-18T11:00:34;100015.03;;;13.57;62.01
19005;BME280;9635;52.078;8.648;2023-03-18T11:05:37;99997.16;;;15.22;57.21
19005;BME280;9635;52.078;8.648;2023-03-18T11:10:44;100003.56;;;15.72;56.44
19005;BME280;9635;52.078;8.648;2023-03-18T11:15:49;100012.31;;;15.41;57.08
19005;BME280;9635;52.078;8.648;2023-03-18T11:20:55;100011.16;;;14.31;58.41
19005;BME280;9635;52.078;8.648;2023-03-18T11:26:07;100007.81;;;15.32;54.83
19005;BME280;9635;52.078;8.648;2023-03-18T11:31:15;100018.22;;;15.45;54.55
19005;BME280;9635;52.078;8.648;2023-03-18T11:36:22;100013.63;;;15.37;54.53
19005;BME280;9635;52.078;8.648;2023-03-18T11:41:27;99995.47;;;17.01;51.60
19005;BME280;9635;52.078;8.648;2023-03-18T11:46:33;100005.34;;;17.65;47.99
19005;BME280;9635;52.078;8.648;2023-03-18T11:51:43;99983.34;;;16.65;49.81
19005;BME280;9635;52.078;8.648;2023-03-18T11:56:54;99990.31;;;17.77;48.24
19005;BME280;9635;52.078;8.648;2023-03-18T12:02:07;99985.28;;;17.66;46.94
19005;BME280;9635;52.078;8.648;2023-03-18T12:07:25;99995.19;;;17.28;46.90
19005;BME280;9635;52.078;8.648;2023-03-18T12:12:45;100008.44;;;15.68;51.00
19005;BME280;9635;52.078;8.648;2023-03-18T12:17:57;99990.22;;;15.20;52.62
19005;BME280;9635;52.078;8.648;2023-03-18T12:23:04;99992.00;;;15.45;52.41
19005;BME280;9635;52.078;8.648;2023-03-18T12:28:26;99987.00;;;16.16;50.37
19005;BME280;9635;52.078;8.648;2023-03-18T12:33:45;99982.13;;;18.08;47.35
19005;BME280;9635;52.078;8.648;2023-03-18T12:39:05;99968.00;;;19.32;43.74
19005;BME280;9635;52.078;8.648;2023-03-18T12:44:19;99976.22;;;18.20;44.58
19005;BME280;9635;52.078;8.648;2023-03-18T12:49:27;99974.38;;;17.20;46.91
19005;BME280;9635;52.078;8.648;2023-03-18T12:54:38;99967.09;;;17.98;44.88
19005;BME280;9635;52.078;8.648;2023-03-18T12:59:47;99958.38;;;18.70;43.15
19005;BME280;9635;52.078;8.648;2023-03-18T13:04:57;99949.63;;;20.89;41.87
19005;BME280;9635;52.078;8.648;2023-03-18T13:10:03;99933.75;;;23.26;37.02
19005;BME280;9635;52.078;8.648;2023-03-18T13:15:19;99939.78;;;22.89;36.83
19005;BME280;9635;52.078;8.648;2023-03-18T13:20:28;99958.41;;;22.07;37.05
19005;BME280;9635;52.078;8.648;2023-03-18T13:25:37;99958.00;;;19.02;42.61
19005;BME280;9635;52.078;8.648;2023-03-18T13:30:55;99963.91;;;17.40;45.85
19005;BME280;9635;52.078;8.648;2023-03-18T13:36:31;99967.63;;;17.70;45.73
19005;BME280;9635;52.078;8.648;2023-03-18T13:41:52;99956.22;;;18.50;44.82
19005;BME280;9635;52.078;8.648;2023-03-18T13:47:03;99953.16;;;20.76;39.80
19005;BME280;9635;52.078;8.648;2023-03-18T13:52:22;99967.63;;;19.35;42.59
19005;BME280;9635;52.078;8.648;2023-03-18T13:57:33;99965.81;;;17.85;45.23
19005;BME280;9635;52.078;8.648;2023-03-18T14:02:44;99970.16;;;16.53;48.21
19005;BME280;9635;52.078;8.648;2023-03-18T14:07:48;99965.22;;;16.73;48.15
19005;BME280;9635;52.078;8.648;2023-03-18T14:12:51;99954.41;;;16.65;48.16
19005;BME280;9635;52.078;8.648;2023-03-18T14:17:56;99961.03;;;16.54;48.37
19005;BME280;9635;52.078;8.648;2023-03-18T14:23:18;99954.03;;;16.68;48.87
19005;BME280;9635;52.078;8.648;2023-03-18T14:28:25;99947.72;;;17.23;47.28
19005;BME280;9635;52.078;8.648;2023-03-18T14:33:45;99956.13;;;16.97;47.12
19005;BME280;9635;52.078;8.648;2023-03-18T14:38:53;99963.50;;;16.72;47.72
19005;BME280;9635;52.078;8.648;2023-03-18T14:44:06;99949.41;;;16.85;47.52
19005;BME280;9635;52.078;8.648;2023-03-18T14:49:35;99947.91;;;16.74;47.97
19005;BME280;9635;52.078;8.648;2023-03-18T14:54:41;99936.41;;;16.64;47.28
19005;BME280;9635;52.078;8.648;2023-03-18T14:59:46;99931.06;;;16.95;47.01
19005;BME280;9635;52.078;8.648;2023-03-18T15:04:52;99925.59;;;17.03;47.13
19005;BME280;9635;52.078;8.648;2023-03-18T15:09:56;99920.66;;;17.07;46.03
19005;BME280;9635;52.078;8.648;2023-03-18T15:14:59;99922.00;;;17.42;45.63
19005;BME280;9635;52.078;8.648;2023-03-18T15:20:04;99915.88;;;17.63;44.08
19005;BME280;9635;52.078;8.648;2023-03-18T15:25:15;99906.91;;;18.39;43.65
19005;BME280;9635;52.078;8.648;2023-03-18T15:30:23;99902.56;;;18.74;42.50
19005;BME280;9635;52.078;8.648;2023-03-18T15:35:28;99896.84;;;18.24;43.67
19005;BME280;9635;52.078;8.648;2023-03-18T15:40:33;99890.38;;;18.25;43.11
19005;BME280;9635;52.078;8.648;2023-03-18T15:45:40;99888.78;;;18.31;43.11
19005;BME280;9635;52.078;8.648;2023-03-18T15:50:52;99893.88;;;19.15;41.92
19005;BME280;9635;52.078;8.648;2023-03-18T15:55:58;99897.50;;;19.58;41.11
19005;BME280;9635;52.078;8.648;2023-03-18T16:01:13;99889.97;;;19.02;42.31
19005;BME280;9635;52.078;8.648;2023-03-18T16:06:19;99895.97;;;17.71;44.50
19005;BME280;9635;52.078;8.648;2023-03-18T16:11:23;99899.38;;;16.88;46.55
19005;BME280;9635;52.078;8.648;2023-03-18T16:16:27;99894.28;;;16.45;47.19
19005;BME280;9635;52.078;8.648;2023-03-18T16:21:32;99897.72;;;16.31;47.97
19005;BME280;9635;52.078;8.648;2023-03-18T16:26:35;99897.03;;;16.29;48.12
19005;BME280;9635;52.078;8.648;2023-03-18T16:31:38;99899.59;;;16.30;48.63
19005;BME280;9635;52.078;8.648;2023-03-18T16:36:43;99898.75;;;16.22;48.62
19005;BME280;9635;52.078;8.648;2023-03-18T16:41:46;99895.56;;;16.02;48.92
19005;BME280;9635;52.078;8.648;2023-03-18T16:46:51;99895.25;;;15.80;49.97
19005;BME280;9635;52.078;8.648;2023-03-18T16:51:56;99905.91;;;15.57;50.34
19005;BME280;9635;52.078;8.648;2023-03-18T16:57:01;99895.25;;;15.39;50.73
19005;BME280;9635;52.078;8.648;2023-03-18T17:02:19;99890.25;;;15.18;51.72
19005;BME280;9635;52.078;8.648;2023-03-18T17:07:27;99898.53;;;15.00;52.28
19005;BME280;9635;52.078;8.648;2023-03-18T17:12:30;99907.78;;;14.90;52.71
19005;BME280;9635;52.078;8.648;2023-03-18T17:17:33;99915.91;;;14.90;52.87
19005;BME280;9635;52.078;8.648;2023-03-18T17:22:38;99908.78;;;14.89;52.80
19005;BME280;9635;52.078;8.648;2023-03-18T17:27:43;99907.22;;;14.78;53.71
19005;BME280;9635;52.078;8.648;2023-03-18T17:32:47;99909.75;;;14.71;55.06
19005;BME280;9635;52.078;8.648;2023-03-18T17:37:52;99918.31;;;14.67;55.09
19005;BME280;9635;52.078;8.648;2023-03-18T17:42:55;99913.94;;;14.66;55.15
19005;BME280;9635;52.078;8.648;2023-03-18T17:48:13;99923.38;;;14.62;55.39
19005;BME280;9635;52.078;8.648;2023-03-18T17:53:26;99927.25;;;14.59;58.84
19005;BME280;9635;52.078;8.648;2023-03-18T17:58:32;99977.97;;;13.59;61.39
19005;BME280;9635;52.078;8.648;2023-03-18T18:03:37;100002.13;;;11.92;76.91
19005;BME280;9635;52.078;8.648;2023-03-18T18:08:42;100016.06;;;9.93;100.00
19005;BME280;9635;52.078;8.648;2023-03-18T18:13:45;100010.31;;;10.19;100.00
19005;BME280;9635;52.078;8.648;2023-03-18T18:18:49;100024.16;;;10.66;100.00
19005;BME280;9635;52.078;8.648;2023-03-18T18:23:53;100017.47;;;10.81;100.00
19005;BME280;9635;52.078;8.648;2023-03-18T18:28:56;100024.97;;;11.18;100.00
19005;BME280;9635;52.078;8.648;2023-03-18T18:33:59;100018.34;;;11.22;100.00
19005;BME280;9635;52.078;8.648;2023-03-18T18:39:03;100016.47;;;11.13;98.99
19005;BME280;9635;52.078;8.648;2023-03-18T18:44:07;100031.50;;;11.35;98.97
19005;BME280;9635;52.078;8.648;2023-03-18T18:49:15;100033.81;;;11.40;98.45
19005;BME280;9635;52.078;8.648;2023-03-18T18:54:23;100026.88;;;11.47;98.39
19005;BME280;9635;52.078;8.648;2023-03-18T18:59:27;100017.81;;;11.38;96.19
19005;BME280;9635;52.078;8.648;2023-03-18T19:04:32;100008.03;;;11.27;96.31
19005;BME280;9635;52.078;8.648;2023-03-18T19:09:43;100016.22;;;11.16;95.69
19005;BME280;9635;52.078;8.648;2023-03-18T19:14:46;100024.63;;;11.12;96.55
19005;BME280;9635;52.078;8.648;2023-03-18T19:19:50;100025.97;;;11.17;96.96
19005;BME280;9635;52.078;8.648;2023-03-18T19:24:55;100033.88;;;11.19;96.75
19005;BME280;9635;52.078;8.648;2023-03-18T19:30:00;100018.75;;;11.18;96.42
19005;BME280;9635;52.078;8.648;2023-03-18T19:35:08;100015.66;;;11.22;95.77
19005;BME280;9635;52.078;8.648;2023-03-18T19:40:21;100027.41;;;11.31;95.47
19005;BME280;9635;52.078;8.648;2023-03-18T19:45:24;100028.22;;;11.12;95.81
19005;BME280;9635;52.078;8.648;2023-03-18T19:50:27;100022.59;;;11.25;95.81
19005;BME280;9635;52.078;8.648;2023-03-18T19:55:31;100018.91;;;11.16;95.23
19005;BME280;9635;52.078;8.648;2023-03-18T20:00:34;100014.69;;;11.02;95.73
19005;BME280;9635;52.078;8.648;2023-03-18T20:05:37;100021.56;;;10.86;95.68
19005;BME280;9635;52.078;8.648;2023-03-18T20:10:42;100027.22;;;10.82;95.49
19005;BME280;9635;52.078;8.648;2023-03-18T20:15:45;100037.78;;;10.74;95.48
19005;BME280;9635;52.078;8.648;2023-03-18T20:20:50;100028.88;;;10.74;95.65
19005;BME280;9635;52.078;8.648;2023-03-18T20:25:54;100035.94;;;10.75;95.42
19005;BME280;9635;52.078;8.648;2023-03-18T20:30:57;100027.28;;;10.71;95.29
19005;BME280;9635;52.078;8.648;2023-03-18T20:36:01;100030.53;;;10.65;95.55
19005;BME280;9635;52.078;8.648;2023-03-18T20:41:06;100033.06;;;10.67;95.68
19005;BME280;9635;52.078;8.648;2023-03-18T20:46:10;100033.53;;;10.72;95.60
19005;BME280;9635;52.078;8.648;2023-03-18T20:51:18;100037.84;;;10.63;95.15
19005;BME280;9635;52.078;8.648;2023-03-18T20:56:24;100027.66;;;10.57;95.24
19005;BME280;9635;52.078;8.648;2023-03-18T21:01:28;100037.38;;;10.48;95.08
19005;BME280;9635;52.078;8.648;2023-03-18T21:06:30;100039.41;;;10.35;94.85
19005;BME280;9635;52.078;8.648;2023-03-18T21:11:35;100037.81;;;10.32;95.24
19005;BME280;9635;52.078;8.648;2023-03-18T21:16:39;100029.88;;;10.31;95.26
19005;BME280;9635;52.078;8.648;2023-03-18T21:21:42;100039.06;;;10.28;95.14
19005;BME280;9635;52.078;8.648;2023-03-18T21:26:46;100035.78;;;10.25;95.21
19005;BME280;9635;52.078;8.648;2023-03-18T21:32:04;100032.16;;;10.14;95.08
19005;BME280;9635;52.078;8.648;2023-03-18T21:37:12;100035.59;;;10.16;95.07
19005;BME280;9635;52.078;8.648;2023-03-18T21:42:21;100039.53;;;10.12;95.05
19005;BME280;9635;52.078;8.648;2023-03-18T21:47:25;100023.53;;;10.11;95.07
19005;BME280;9635;52.078;8.648;2023-03-18T21:52:30;100025.19;;;10.02;95.20
19005;BME280;9635;52.078;8.648;2023-03-18T21:57:35;100029.09;;;9.98;95.11
19005;BME280;9635;52.078;8.648;2023-03-18T22:02:38;100033.50;;;9.99;95.15
19005;BME280;9635;52.078;8.648;2023-03-18T22:07:41;100034.34;;;10.00;95.07
19005;BME280;9635;52.078;8.648;2023-03-18T22:12:45;100033.50;;;9.99;94.98
19005;BME280;9635;52.078;8.648;2023-03-18T22:17:49;100025.56;;;9.98;94.96
19005;BME280;9635;52.078;8.648;2023-03-18T22:22:52;100026.81;;;9.93;94.88
19005;BME280;9635;52.078;8.648;2023-03-18T22:27:57;100028.66;;;9.93;94.52
19005;BME280;9635;52.078;8.648;2023-03-18T22:33:02;100028.38;;;9.96;93.84
19005;BME280;9635;52.078;8.648;2023-03-18T22:38:08;100033.75;;;9.96;93.85
19005;BME280;9635;52.078;8.648;2023-03-18T22:43:26;100036.81;;;9.91;93.76
19005;BME280;9635;52.078;8.648;2023-03-18T22:48:30;100029.75;;;9.90;93.72
19005;BME280;9635;52.078;8.648;2023-03-18T22:53:35;100035.38;;;9.87;93.66
19005;BME280;9635;52.078;8.648;2023-03-18T22:58:40;100032.19;;;9.82;93.75
19005;BME280;9635;52.078;8.648;2023-03-18T23:03:43;100025.94;;;9.82;93.92
19005;BME280;9635;52.078;8.648;2023-03-18T23:08:47;100024.53;;;9.78;93.21
19005;BME280;9635;52.078;8.648;2023-03-18T23:13:51;100033.09;;;9.71;93.65
19005;BME280;9635;52.078;8.648;2023-03-18T23:18:54;100022.63;;;9.68;93.33
19005;BME280;9635;52.078;8.648;2023-03-18T23:23:57;100026.41;;;9.66;93.50
19005;BME280;9635;52.078;8.648;2023-03-18T23:29:01;100027.63;;;9.62;93.39
19005;BME280;9635;52.078;8.648;2023-03-18T23:34:04;100026.81;;;9.50;93.31
19005;BME280;9635;52.078;8.648;2023-03-18T23:39:07;100026.34;;;9.45;93.28
19005;BME280;9635;52.078;8.648;2023-03-18T23:44:11;100023.53;;;9.46;93.20
19005;BME280;9635;52.078;8.648;2023-03-18T23:49:13;100029.25;;;9.42;93.07
19005;BME280;9635;52.078;8.648;2023-03-18T23:54:17;100030.88;;;9.33;92.88
19005;BME280;9635;52.078;8.648;2023-03-18T23:59:21;100027.81;;;9.26;92.93
